createdAt,value
2023-07-05T00:01:47.785Z,100501.94
2023-07-05T00:04:49.644Z,100502.38
2023-07-05T00:07:51.473Z,100494.78
2023-07-05T00:11:02.684Z,100493.94
2023-07-05T00:14:04.651Z,100500.09
2023-07-05T00:17:06.587Z,100500.22
2023-07-05T00:20:08.870Z,100491.66
2023-07-05T00:23:10.644Z,100494.22
2023-07-05T00:26:12.452Z,100493.50
2023-07-05T00:29:14.423Z,100490.25
2023-07-05T00:32:16.300Z,100487.97
2023-07-05T00:35:18.017Z,100495.25
2023-07-05T00:38:20.805Z,100485.94
2023-07-05T00:41:22.737Z,100487.53
2023-07-05T00:44:24.654Z,100484.25
2023-07-05T00:47:29.563Z,100483.38
2023-07-05T00:50:37.793Z,100473.94
2023-07-05T00:53:40.083Z,100470.59
2023-07-05T00:56:55.758Z,100474.78
2023-07-05T01:00:24.312Z,100477.78
2023-07-05T01:03:26.940Z,100474.44
2023-07-05T01:06:28.944Z,100480.19
2023-07-05T01:09:31.201Z,100472.94
2023-07-05T01:12:47.423Z,100478.78
2023-07-05T01:15:57.495Z,100472.97
2023-07-05T01:19:18.907Z,100462.09
2023-07-05T01:22:58.729Z,100474.66
2023-07-05T01:26:06.619Z,100466.38
2023-07-05T01:29:48.311Z,100462.94
2023-07-05T01:32:55.360Z,100463.81
2023-07-05T01:35:58.228Z,100458.34
2023-07-05T01:38:59.979Z,100457.50
2023-07-05T01:42:03.250Z,100451.91
2023-07-05T01:45:05.391Z,100453.22
2023-07-05T01:48:12.384Z,100451.19
2023-07-05T01:51:33.487Z,100446.94
2023-07-05T01:54:40.432Z,100450.44
2023-07-05T01:57:50.162Z,100465.56
2023-07-05T02:00:52.745Z,100457.56
2023-07-05T02:03:55.054Z,100453.09
2023-07-05T02:06:56.940Z,100457.87
2023-07-05T02:09:58.892Z,100456.09
2023-07-05T02:13:05.335Z,100451.50
2023-07-05T02:16:07.097Z,100451.13
2023-07-05T02:19:09.267Z,100447.19
2023-07-05T02:22:12.006Z,100455.22
2023-07-05T02:25:14.013Z,100438.25
2023-07-05T02:28:15.770Z,100448.56
2023-07-05T02:31:17.841Z,100457.09
2023-07-05T02:34:20.708Z,100457.00
2023-07-05T02:37:23.157Z,100457.56
2023-07-05T02:40:24.919Z,100457.56
2023-07-05T02:43:26.752Z,100464.28
2023-07-05T02:46:30.742Z,100447.66
2023-07-05T02:49:32.747Z,100449.38
2023-07-05T02:52:34.474Z,100450.75
2023-07-05T02:55:36.316Z,100453.06
2023-07-05T02:58:38.100Z,100451.94
2023-07-05T03:01:40.011Z,100451.94
2023-07-05T03:04:48.077Z,100461.44
2023-07-05T03:07:50.178Z,100464.13
2023-07-05T03:10:59.854Z,100458.47
2023-07-05T03:14:01.661Z,100455.31
2023-07-05T03:17:03.607Z,100457.44
2023-07-05T03:20:06.275Z,100457.03
2023-07-05T03:23:08.755Z,100454.84
2023-07-05T03:26:11.049Z,100461.00
2023-07-05T03:29:12.801Z,100450.13
2023-07-05T03:32:15.216Z,100444.25
2023-07-05T03:35:17.026Z,100450.72
2023-07-05T03:38:18.808Z,100465.47
2023-07-05T03:41:25.329Z,100465.56
2023-07-05T03:44:27.213Z,100453.72
2023-07-05T03:47:29.798Z,100433.91
2023-07-05T03:50:35.357Z,100394.91
2023-07-05T03:53:37.261Z,100405.38
2023-07-05T03:56:39.120Z,100393.91
2023-07-05T03:59:41.228Z,100375.00
2023-07-05T04:02:43.120Z,100382.31
2023-07-05T04:05:44.912Z,100341.22
2023-07-05T04:08:46.883Z,100342.50
2023-07-05T04:11:48.670Z,100327.38
2023-07-05T04:14:50.509Z,100316.91
2023-07-05T04:17:52.378Z,100313.84
2023-07-05T04:20:54.536Z,100325.97
2023-07-05T04:23:56.871Z,100318.63
2023-07-05T04:26:58.630Z,100320.78
2023-07-05T04:30:00.365Z,100317.59
2023-07-05T04:33:02.194Z,100341.47
2023-07-05T04:36:06.075Z,100318.00
2023-07-05T04:39:09.329Z,100333.97
2023-07-05T04:42:11.074Z,100398.12
2023-07-05T04:45:12.891Z,100418.59
2023-07-05T04:48:14.652Z,100429.47
2023-07-05T04:51:16.446Z,100456.56
2023-07-05T04:54:18.440Z,100438.69
2023-07-05T04:57:32.002Z,100464.25
2023-07-05T05:00:38.304Z,100459.19
2023-07-05T05:03:40.661Z,100463.84
2023-07-05T05:06:42.453Z,100469.09
2023-07-05T05:09:44.232Z,100481.09
2023-07-05T05:12:45.954Z,100482.59
2023-07-05T05:15:48.813Z,100488.66
2023-07-05T05:18:50.672Z,100462.38
2023-07-05T05:21:52.495Z,100462.28
2023-07-05T05:24:54.278Z,100470.38
2023-07-05T05:27:56.145Z,100451.88
2023-07-05T05:31:07.740Z,100463.72
2023-07-05T05:34:09.670Z,100460.41
2023-07-05T05:37:11.485Z,100452.56
2023-07-05T05:40:13.298Z,100459.25
2023-07-05T05:43:15.614Z,100455.31
2023-07-05T05:46:18.490Z,100443.09
2023-07-05T05:49:20.991Z,100443.38
2023-07-05T05:52:22.957Z,100446.19
2023-07-05T05:55:24.701Z,100432.97
2023-07-05T05:58:28.321Z,100435.34
2023-07-05T06:01:30.202Z,100431.00
2023-07-05T06:04:32.095Z,100434.28
2023-07-05T06:07:33.874Z,100428.25
2023-07-05T06:10:35.741Z,100432.81
2023-07-05T06:13:37.638Z,100418.84
2023-07-05T06:16:39.496Z,100411.69
2023-07-05T06:19:41.402Z,100419.47
2023-07-05T06:22:43.623Z,100414.72
2023-07-05T06:25:49.735Z,100397.28
2023-07-05T06:28:52.440Z,100389.19
2023-07-05T06:31:54.612Z,100386.94
2023-07-05T06:34:56.561Z,100380.13
2023-07-05T06:37:58.548Z,100365.25
2023-07-05T06:41:00.801Z,100381.03
2023-07-05T06:44:02.797Z,100394.00
2023-07-05T06:47:04.939Z,100380.25
2023-07-05T06:50:07.783Z,100365.41
2023-07-05T06:53:30.286Z,100365.78
2023-07-05T06:56:32.882Z,100365.44
2023-07-05T06:59:34.942Z,100349.75
2023-07-05T07:02:37.244Z,100348.53
2023-07-05T07:05:39.892Z,100339.53
2023-07-05T07:08:42.045Z,100324.56
2023-07-05T07:11:47.080Z,100343.66
2023-07-05T07:14:48.894Z,100345.97
2023-07-05T07:17:51.033Z,100321.44
2023-07-05T07:20:55.396Z,100343.09
2023-07-05T07:23:57.500Z,100312.69
2023-07-05T07:26:59.867Z,100320.97
2023-07-05T07:30:05.051Z,100305.28
2023-07-05T07:33:07.462Z,100333.31
2023-07-05T07:36:11.284Z,100294.44
2023-07-05T07:39:13.196Z,100297.72
2023-07-05T07:42:15.120Z,100294.37
2023-07-05T07:45:17.079Z,100295.00
2023-07-05T07:48:18.944Z,100297.28
2023-07-05T07:51:35.713Z,100301.09
2023-07-05T07:54:39.988Z,100279.53
2023-07-05T07:57:42.466Z,100292.47
2023-07-05T08:00:44.342Z,100280.16
2023-07-05T08:03:46.906Z,100280.75
2023-07-05T08:06:51.656Z,100301.66
2023-07-05T08:09:56.670Z,100281.53
2023-07-05T08:12:58.528Z,100290.88
2023-07-05T08:16:00.436Z,100274.81
2023-07-05T08:19:02.475Z,100263.03
2023-07-05T08:22:04.950Z,100240.16
2023-07-05T08:25:07.711Z,100247.63
2023-07-05T08:28:13.320Z,100242.56
2023-07-05T08:31:15.240Z,100253.31
2023-07-05T08:34:17.502Z,100260.81
2023-07-05T08:37:19.573Z,100267.28
2023-07-05T08:40:21.823Z,100259.78
2023-07-05T08:43:28.688Z,100261.84
2023-07-05T08:46:31.048Z,100255.28
2023-07-05T08:49:35.672Z,100221.84
2023-07-05T08:52:44.681Z,100230.50
2023-07-05T08:55:54.320Z,100212.22
2023-07-05T08:59:05.267Z,100220.37
2023-07-05T09:02:09.050Z,100220.47
2023-07-05T09:05:23.424Z,100245.94
2023-07-05T09:09:03.179Z,100239.09
2023-07-05T09:12:13.882Z,100233.91
2023-07-05T09:15:22.265Z,100228.78
2023-07-05T09:18:48.048Z,100228.22
2023-07-05T09:21:57.050Z,100212.84
2023-07-05T09:24:59.699Z,100218.31
2023-07-05T09:28:15.603Z,100201.56
2023-07-05T09:31:17.931Z,100155.25
2023-07-05T09:34:29.335Z,100202.66
2023-07-05T09:37:36.440Z,100201.91
2023-07-05T09:40:43.751Z,100209.44
2023-07-05T09:43:45.849Z,100205.97
2023-07-05T09:46:49.100Z,100195.91
2023-07-05T09:49:51.129Z,100188.03
2023-07-05T09:52:56.883Z,100194.09
2023-07-05T09:56:16.528Z,100181.84
2023-07-05T09:59:22.329Z,100189.50
2023-07-05T10:02:30.878Z,100187.00
2023-07-05T10:05:32.895Z,100184.72
2023-07-05T10:08:45.868Z,100177.03
2023-07-05T10:11:55.447Z,100149.84
2023-07-05T10:14:58.355Z,100170.09
2023-07-05T10:18:00.811Z,100178.47
2023-07-05T10:21:05.363Z,100171.94
2023-07-05T10:24:10.597Z,100173.59
2023-07-05T10:27:21.310Z,100179.13
2023-07-05T10:30:23.110Z,100158.84
2023-07-05T10:33:25.850Z,100167.19
2023-07-05T10:36:27.605Z,100178.56
2023-07-05T10:39:29.385Z,100152.50
2023-07-05T10:42:31.444Z,100147.97
2023-07-05T10:45:36.669Z,100125.53
2023-07-05T10:48:41.818Z,100119.09
2023-07-05T10:51:49.363Z,100153.63
2023-07-05T10:55:08.735Z,100128.13
2023-07-05T10:58:18.402Z,100119.22
2023-07-05T11:01:32.060Z,100120.44
2023-07-05T11:04:35.373Z,100124.41
2023-07-05T11:07:37.164Z,100118.22
2023-07-05T11:10:42.985Z,100131.91
2023-07-05T11:13:48.319Z,100112.31
2023-07-05T11:16:50.327Z,100117.53
2023-07-05T11:19:52.148Z,100121.75
2023-07-05T11:22:53.982Z,100114.78
2023-07-05T11:25:55.914Z,100114.16
2023-07-05T11:28:57.985Z,100107.59
2023-07-05T11:32:06.274Z,100091.47
2023-07-05T11:35:08.298Z,100085.97
2023-07-05T11:38:10.067Z,100080.31
2023-07-05T11:41:28.172Z,100088.63
2023-07-05T11:44:30.943Z,100044.72
2023-07-05T11:47:34.318Z,100067.25
2023-07-05T11:50:37.341Z,100045.34
2023-07-05T11:53:40.137Z,100077.94
2023-07-05T11:56:42.208Z,100072.00
2023-07-05T12:00:19.425Z,100072.28
2023-07-05T12:03:23.494Z,100062.94
2023-07-05T12:06:40.012Z,100058.97
2023-07-05T12:09:43.426Z,100036.19
2023-07-05T12:12:45.244Z,100019.47
2023-07-05T12:15:47.047Z,100037.09
2023-07-05T12:18:48.958Z,100032.75
2023-07-05T12:21:54.633Z,100037.81
2023-07-05T12:24:58.397Z,100010.22
2023-07-05T12:28:01.705Z,100029.69
2023-07-05T12:31:13.763Z,100039.22
2023-07-05T12:34:20.521Z,100016.16
2023-07-05T12:37:32.785Z,100017.47
2023-07-05T12:40:39.116Z,100012.69
2023-07-05T12:43:40.995Z,99989.97
2023-07-05T12:46:46.849Z,99999.75
2023-07-05T12:50:03.006Z,100000.19
2023-07-05T12:53:07.597Z,100007.25
2023-07-05T12:56:12.054Z,99982.25
2023-07-05T12:59:47.400Z,100002.13
2023-07-05T13:03:00.404Z,99998.59
2023-07-05T13:06:03.409Z,100002.63
2023-07-05T13:09:07.736Z,99989.50
2023-07-05T13:12:11.060Z,99979.19
2023-07-05T13:15:13.009Z,99983.56
2023-07-05T13:18:27.015Z,99987.16
2023-07-05T13:21:45.864Z,99974.91
2023-07-05T13:24:49.426Z,99942.69
2023-07-05T13:27:53.922Z,99971.22
2023-07-05T13:31:04.997Z,99966.22
2023-07-05T13:34:07.684Z,99968.19
2023-07-05T13:37:15.702Z,99955.03
2023-07-05T13:40:26.034Z,99950.22
2023-07-05T13:43:28.048Z,99950.97
2023-07-05T13:46:30.257Z,99949.88
2023-07-05T13:49:32.151Z,99957.75
2023-07-05T13:52:34.426Z,99966.72
2023-07-05T13:55:36.286Z,99957.44
2023-07-05T13:58:40.949Z,99949.88
2023-07-05T14:01:43.572Z,99944.06
2023-07-05T14:04:45.360Z,99944.94
2023-07-05T14:07:47.239Z,99932.28
2023-07-05T14:10:49.810Z,99925.00
2023-07-05T14:13:51.827Z,99915.91
2023-07-05T14:16:53.681Z,99909.41
2023-07-05T14:19:55.655Z,99929.72
2023-07-05T14:22:59.673Z,99920.59
2023-07-05T14:26:01.520Z,99933.37
2023-07-05T14:29:04.315Z,99933.09
2023-07-05T14:32:08.646Z,99935.72
2023-07-05T14:35:19.348Z,99919.78
2023-07-05T14:38:21.150Z,99916.50
2023-07-05T14:41:25.595Z,99916.66
2023-07-05T14:44:27.460Z,99924.53
2023-07-05T14:47:29.349Z,99909.19
2023-07-05T14:50:32.573Z,99895.50
2023-07-05T14:53:34.416Z,99915.03
2023-07-05T14:56:37.864Z,99905.44
2023-07-05T14:59:39.716Z,99914.09
2023-07-05T15:02:50.213Z,99924.63
2023-07-05T15:05:52.493Z,99906.78
2023-07-05T15:08:55.473Z,99917.13
2023-07-05T15:11:57.371Z,99905.94
2023-07-05T15:14:59.124Z,99925.34
2023-07-05T15:18:01.348Z,99908.09
2023-07-05T15:21:03.437Z,99917.28
2023-07-05T15:24:05.804Z,99915.91
2023-07-05T15:27:08.182Z,99918.13
2023-07-05T15:30:10.999Z,99915.81
2023-07-05T15:33:12.865Z,99919.97
2023-07-05T15:36:20.021Z,99918.28
2023-07-05T15:39:22.461Z,99911.19
2023-07-05T15:42:24.903Z,99903.34
2023-07-05T15:45:26.910Z,99911.41
2023-07-05T15:48:28.670Z,99913.25
2023-07-05T15:51:30.522Z,99922.06
2023-07-05T15:54:33.736Z,99928.47
2023-07-05T15:57:36.199Z,99930.13
2023-07-05T16:00:52.239Z,99936.28
2023-07-05T16:03:54.179Z,99920.88
2023-07-05T16:06:56.935Z,99925.44
2023-07-05T16:10:00.415Z,99928.97
2023-07-05T16:13:03.309Z,99938.44
2023-07-05T16:16:05.418Z,99941.22
2023-07-05T16:19:07.446Z,99942.53
2023-07-05T16:22:09.290Z,99950.84
2023-07-05T16:25:11.095Z,99955.06
2023-07-05T16:28:13.422Z,99957.47
2023-07-05T16:31:15.182Z,99947.00
2023-07-05T16:34:17.094Z,99948.41
2023-07-05T16:37:19.492Z,99955.59
2023-07-05T16:40:21.298Z,99952.69
2023-07-05T16:43:23.124Z,99961.44
2023-07-05T16:46:24.988Z,99952.25
2023-07-05T16:49:28.545Z,99958.88
2023-07-05T16:52:30.291Z,99953.44
2023-07-05T16:55:32.482Z,99966.41
2023-07-05T16:58:34.594Z,99964.88
2023-07-05T17:01:36.370Z,99974.81
2023-07-05T17:04:39.075Z,99977.03
2023-07-05T17:07:40.861Z,99974.59
2023-07-05T17:10:42.643Z,99968.84
2023-07-05T17:13:44.482Z,99967.16
2023-07-05T17:16:46.871Z,99987.84
2023-07-05T17:19:48.731Z,99984.50
2023-07-05T17:22:50.596Z,99986.94
2023-07-05T17:25:57.314Z,99998.25
2023-07-05T17:28:59.758Z,99992.00
2023-07-05T17:32:02.162Z,100000.06
2023-07-05T17:35:04.311Z,99997.56
2023-07-05T17:38:06.796Z,100010.28
2023-07-05T17:41:08.720Z,100015.69
2023-07-05T17:44:10.560Z,100027.19
2023-07-05T17:47:12.416Z,100026.97
2023-07-05T17:50:14.184Z,100036.84
2023-07-05T17:53:16.100Z,100046.84
2023-07-05T17:56:20.192Z,100053.28
2023-07-05T17:59:22.175Z,100067.28
2023-07-05T18:02:24.054Z,100057.13
2023-07-05T18:05:26.429Z,100059.28
2023-07-05T18:08:28.578Z,100057.59
2023-07-05T18:11:30.902Z,100058.09
2023-07-05T18:14:32.839Z,100064.47
2023-07-05T18:17:34.790Z,100062.38
2023-07-05T18:20:36.729Z,100061.06
2023-07-05T18:23:40.633Z,100071.69
2023-07-05T18:26:42.658Z,100073.81
2023-07-05T18:29:44.453Z,100075.72
2023-07-05T18:32:46.276Z,100088.59
2023-07-05T18:35:50.125Z,100089.91
2023-07-05T18:38:52.852Z,100096.88
2023-07-05T18:41:54.617Z,100090.53
2023-07-05T18:44:57.129Z,100093.88
2023-07-05T18:47:58.915Z,100098.09
2023-07-05T18:51:01.607Z,100100.63
2023-07-05T18:54:05.430Z,100108.63
2023-07-05T18:57:07.726Z,100108.37
2023-07-05T19:00:10.070Z,100134.72
2023-07-05T19:03:12.030Z,100142.31
2023-07-05T19:06:16.552Z,100138.78
2023-07-05T19:09:19.668Z,100135.87
2023-07-05T19:12:21.444Z,100141.13
2023-07-05T19:15:23.221Z,100143.03
2023-07-05T19:18:26.746Z,100148.34
2023-07-05T19:21:32.053Z,100147.44
2023-07-05T19:24:34.039Z,100155.37
2023-07-05T19:27:36.774Z,100161.31
2023-07-05T19:30:38.658Z,100156.72
2023-07-05T19:33:42.565Z,100162.87
2023-07-05T19:36:44.938Z,100176.84
2023-07-05T19:39:46.871Z,100183.75
2023-07-05T19:42:48.628Z,100179.09
2023-07-05T19:45:51.366Z,100178.25
2023-07-05T19:49:00.827Z,100182.16
2023-07-05T19:52:02.915Z,100185.38
2023-07-05T19:55:05.066Z,100185.38
2023-07-05T19:58:06.886Z,100186.16
2023-07-05T20:01:09.388Z,100174.41
2023-07-05T20:04:11.493Z,100181.84
2023-07-05T20:07:14.267Z,100188.72
2023-07-05T20:10:16.085Z,100196.94
2023-07-05T20:13:18.424Z,100185.34
2023-07-05T20:16:21.415Z,100187.34
2023-07-05T20:19:24.289Z,100196.59
2023-07-05T20:22:26.057Z,100195.38
2023-07-05T20:25:29.558Z,100210.97
2023-07-05T20:28:31.426Z,100200.47
2023-07-05T20:31:33.883Z,100206.72
2023-07-05T20:34:35.648Z,100199.56
2023-07-05T20:37:43.984Z,100203.00
2023-07-05T20:40:49.225Z,100200.56
2023-07-05T20:43:51.288Z,100204.25
2023-07-05T20:46:55.843Z,100213.09
2023-07-05T20:49:59.603Z,100220.66
2023-07-05T20:53:01.422Z,100212.16
2023-07-05T20:56:03.581Z,100205.84
2023-07-05T20:59:05.381Z,100209.78
2023-07-05T21:02:08.758Z,100218.91
2023-07-05T21:05:14.593Z,100227.22
2023-07-05T21:08:16.780Z,100224.72
2023-07-05T21:11:18.643Z,100223.56
2023-07-05T21:14:20.497Z,100231.50
2023-07-05T21:17:22.390Z,100226.56
2023-07-05T21:20:24.393Z,100224.63
2023-07-05T21:23:26.207Z,100224.25
2023-07-05T21:26:28.696Z,100221.03
2023-07-05T21:29:30.565Z,100224.56
2023-07-05T21:32:32.386Z,100226.78
2023-07-05T21:35:36.025Z,100231.59
2023-07-05T21:38:38.952Z,100238.56
2023-07-05T21:41:41.150Z,100224.22
2023-07-05T21:44:43.195Z,100228.75
2023-07-05T21:47:45.270Z,100228.25
2023-07-05T21:50:47.573Z,100233.41
2023-07-05T21:53:49.382Z,100231.09
2023-07-05T21:56:51.131Z,100229.75
2023-07-05T21:59:52.845Z,100235.94
2023-07-05T22:02:56.839Z,100237.69
2023-07-05T22:05:59.827Z,100244.13
2023-07-05T22:09:02.763Z,100233.87
2023-07-05T22:12:05.653Z,100235.56
2023-07-05T22:15:10.108Z,100237.47
2023-07-05T22:18:11.962Z,100225.00
2023-07-05T22:21:15.870Z,100229.38
2023-07-05T22:24:17.706Z,100235.38
2023-07-05T22:27:19.441Z,100238.66
2023-07-05T22:33:23.885Z,100241.78
2023-07-05T22:36:25.778Z,100246.03
2023-07-05T22:39:27.537Z,100259.16
2023-07-05T22:42:29.757Z,100247.22
2023-07-05T22:45:31.538Z,100238.38
2023-07-05T22:48:35.162Z,100245.34
2023-07-05T22:51:39.492Z,100238.53
2023-07-05T22:54:41.396Z,100240.56
2023-07-05T22:57:43.682Z,100230.69
2023-07-05T23:00:47.658Z,100241.25
2023-07-05T23:03:50.330Z,100256.19
2023-07-05T23:06:52.474Z,100257.28
2023-07-05T23:09:54.352Z,100257.78
2023-07-05T23:12:56.132Z,100258.97
2023-07-05T23:15:58.572Z,100272.91
2023-07-05T23:19:01.339Z,100268.69
2023-07-05T23:22:03.389Z,100268.16
2023-07-05T23:25:05.422Z,100259.16
2023-07-05T23:28:07.339Z,100253.50
2023-07-05T23:31:29.633Z,100268.34
2023-07-05T23:34:31.408Z,100273.78
2023-07-05T23:37:33.167Z,100258.13
2023-07-05T23:40:36.272Z,100268.19
2023-07-05T23:43:43.107Z,100257.78
2023-07-05T23:46:45.048Z,100259.81
2023-07-05T23:49:46.859Z,100264.09
2023-07-05T23:52:49.223Z,100268.19
2023-07-05T23:55:54.464Z,100259.50
2023-07-05T23:58:57.342Z,100264.63
